sensor_id;sensor_type;location;lat;lon;timestamp;P1;durP1;ratioP1;P2;durP2;ratioP2
25279;SDS011;13225;47.804;12.116;2023-03-16T00:00:34;11.40;;;7.53;;
25279;SDS011;13225;47.804;12.116;2023-03-16T00:03:00;13.38;;;7.07;;
25279;SDS011;13225;47.804;12.116;2023-03-16T00:05:25;10.32;;;5.95;;
25279;SDS011;13225;47.804;12.116;2023-03-16T00:07:51;13.85;;;6.85;;
25279;SDS011;13225;47.804;12.116;2023-03-16T00:10:16;11.15;;;6.72;;
25279;SDS011;13225;47.804;12.116;2023-03-16T00:12:42;11.65;;;6.53;;
25279;SDS011;13225;47.804;12.116;2023-03-16T00:15:08;10.02;;;6.55;;
25279;SDS011;13225;47.804;12.116;2023-03-16T00:17:35;11.00;;;6.82;;
25279;SDS011;13225;47.804;12.116;2023-03-16T00:20:01;10.90;;;6.50;;
25279;SDS011;13225;47.804;12.116;2023-03-16T00:22:30;11.57;;;6.50;;
25279;SDS011;13225;47.804;12.116;2023-03-16T00:24:55;10.90;;;6.43;;
25279;SDS011;13225;47.804;12.116;2023-03-16T00:27:22;10.95;;;6.63;;
25279;SDS011;13225;47.804;12.116;2023-03-16T00:29:49;10.32;;;6.68;;
25279;SDS011;13225;47.804;12.116;2023-03-16T00:32:29;11.18;;;6.20;;
25279;SDS011;13225;47.804;12.116;2023-03-16T00:34:56;12.95;;;6.40;;
25279;SDS011;13225;47.804;12.116;2023-03-16T00:37:22;8.05;;;5.53;;
25279;SDS011;13225;47.804;12.116;2023-03-16T00:39:49;11.50;;;6.22;;
25279;SDS011;13225;47.804;12.116;2023-03-16T00:42:16;11.55;;;6.32;;
25279;SDS011;13225;47.804;12.116;2023-03-16T00:44:42;10.70;;;6.40;;
25279;SDS011;13225;47.804;12.116;2023-03-16T00:47:09;10.52;;;7.07;;
25279;SDS011;13225;47.804;12.116;2023-03-16T00:49:38;11.73;;;6.88;;
25279;SDS011;13225;47.804;12.116;2023-03-16T00:52:06;11.88;;;7.20;;
25279;SDS011;13225;47.804;12.116;2023-03-16T00:54:33;13.35;;;7.57;;
25279;SDS011;13225;47.804;12.116;2023-03-16T00:56:59;10.85;;;6.20;;
25279;SDS011;13225;47.804;12.116;2023-03-16T00:59:25;10.63;;;6.97;;
25279;SDS011;13225;47.804;12.116;2023-03-16T01:01:52;12.45;;;7.40;;
25279;SDS011;13225;47.804;12.116;2023-03-16T01:04:18;11.63;;;6.90;;
25279;SDS011;13225;47.804;12.116;2023-03-16T01:06:44;13.80;;;7.40;;
25279;SDS011;13225;47.804;12.116;2023-03-16T01:09:10;12.52;;;7.20;;
25279;SDS011;13225;47.804;12.116;2023-03-16T01:11:39;12.35;;;7.15;;
25279;SDS011;13225;47.804;12.116;2023-03-16T01:14:07;11.25;;;7.05;;
25279;SDS011;13225;47.804;12.116;2023-03-16T01:16:33;11.90;;;7.35;;
25279;SDS011;13225;47.804;12.116;2023-03-16T01:18:59;12.02;;;6.65;;
25279;SDS011;13225;47.804;12.116;2023-03-16T01:21:25;12.38;;;7.70;;
25279;SDS011;13225;47.804;12.116;2023-03-16T01:23:51;11.63;;;7.22;;
25279;SDS011;13225;47.804;12.116;2023-03-16T01:26:17;9.85;;;6.88;;
25279;SDS011;13225;47.804;12.116;2023-03-16T01:28:44;12.65;;;7.85;;
25279;SDS011;13225;47.804;12.116;2023-03-16T01:31:10;12.95;;;7.30;;
25279;SDS011;13225;47.804;12.116;2023-03-16T01:33:38;13.05;;;7.38;;
25279;SDS011;13225;47.804;12.116;2023-03-16T01:36:06;12.15;;;7.88;;
25279;SDS011;13225;47.804;12.116;2023-03-16T01:38:33;14.75;;;9.25;;
25279;SDS011;13225;47.804;12.116;2023-03-16T01:40:59;16.55;;;10.25;;
25279;SDS011;13225;47.804;12.116;2023-03-16T01:43:26;13.00;;;8.63;;
25279;SDS011;13225;47.804;12.116;2023-03-16T01:48:51;13.35;;;8.38;;
25279;SDS011;13225;47.804;12.116;2023-03-16T01:51:22;13.15;;;8.15;;
25279;SDS011;13225;47.804;12.116;2023-03-16T01:57:21;14.18;;;8.07;;
25279;SDS011;13225;47.804;12.116;2023-03-16T02:00:02;12.80;;;7.85;;
25279;SDS011;13225;47.804;12.116;2023-03-16T02:02:34;13.80;;;8.18;;
25279;SDS011;13225;47.804;12.116;2023-03-16T02:05:09;17.50;;;8.88;;
25279;SDS011;13225;47.804;12.116;2023-03-16T02:07:48;15.68;;;8.23;;
25279;SDS011;13225;47.804;12.116;2023-03-16T02:10:22;15.27;;;8.65;;
25279;SDS011;13225;47.804;12.116;2023-03-16T02:12:51;14.98;;;8.35;;
25279;SDS011;13225;47.804;12.116;2023-03-16T02:15:18;13.35;;;7.88;;
25279;SDS011;13225;47.804;12.116;2023-03-16T02:17:44;13.48;;;8.30;;
25279;SDS011;13225;47.804;12.116;2023-03-16T02:20:23;13.07;;;8.27;;
25279;SDS011;13225;47.804;12.116;2023-03-16T02:23:06;12.18;;;8.02;;
25279;SDS011;13225;47.804;12.116;2023-03-16T02:25:47;13.30;;;7.57;;
25279;SDS011;13225;47.804;12.116;2023-03-16T02:28:38;14.40;;;7.78;;
25279;SDS011;13225;47.804;12.116;2023-03-16T02:31:15;14.13;;;8.27;;
25279;SDS011;13225;47.804;12.116;2023-03-16T02:33:42;12.90;;;7.78;;
25279;SDS011;13225;47.804;12.116;2023-03-16T02:36:11;14.10;;;7.85;;
25279;SDS011;13225;47.804;12.116;2023-03-16T02:38:38;15.20;;;8.48;;
25279;SDS011;13225;47.804;12.116;2023-03-16T02:41:14;14.13;;;8.25;;
25279;SDS011;13225;47.804;12.116;2023-03-16T02:43:59;13.63;;;8.30;;
25279;SDS011;13225;47.804;12.116;2023-03-16T02:46:28;13.65;;;8.57;;
25279;SDS011;13225;47.804;12.116;2023-03-16T02:52:01;19.60;;;10.00;;
25279;SDS011;13225;47.804;12.116;2023-03-16T02:54:28;20.88;;;10.98;;
25279;SDS011;13225;47.804;12.116;2023-03-16T02:56:53;16.23;;;9.85;;
25279;SDS011;13225;47.804;12.116;2023-03-16T02:59:19;23.58;;;10.93;;
25279;SDS011;13225;47.804;12.116;2023-03-16T03:01:45;17.20;;;9.52;;
25279;SDS011;13225;47.804;12.116;2023-03-16T03:04:11;18.73;;;10.07;;
25279;SDS011;13225;47.804;12.116;2023-03-16T03:06:37;21.88;;;10.88;;
25279;SDS011;13225;47.804;12.116;2023-03-16T03:09:03;20.45;;;10.18;;
25279;SDS011;13225;47.804;12.116;2023-03-16T03:11:29;22.33;;;11.25;;
25279;SDS011;13225;47.804;12.116;2023-03-16T03:13:56;23.33;;;11.52;;
25279;SDS011;13225;47.804;12.116;2023-03-16T03:16:21;24.38;;;11.48;;
25279;SDS011;13225;47.804;12.116;2023-03-16T03:18:47;20.80;;;11.38;;
25279;SDS011;13225;47.804;12.116;2023-03-16T03:21:13;20.67;;;11.30;;
25279;SDS011;13225;47.804;12.116;2023-03-16T03:23:39;22.83;;;11.15;;
25279;SDS011;13225;47.804;12.116;2023-03-16T03:26:04;20.65;;;10.77;;
25279;SDS011;13225;47.804;12.116;2023-03-16T03:28:31;18.38;;;10.52;;
25279;SDS011;13225;47.804;12.116;2023-03-16T03:30:58;23.23;;;10.73;;
25279;SDS011;13225;47.804;12.116;2023-03-16T03:33:24;22.95;;;11.18;;
25279;SDS011;13225;47.804;12.116;2023-03-16T03:35:53;22.90;;;11.45;;
25279;SDS011;13225;47.804;12.116;2023-03-16T03:38:21;22.65;;;11.80;;
25279;SDS011;13225;47.804;12.116;2023-03-16T03:40:50;23.90;;;10.93;;
25279;SDS011;13225;47.804;12.116;2023-03-16T03:43:16;24.50;;;10.85;;
25279;SDS011;13225;47.804;12.116;2023-03-16T03:45:42;25.60;;;11.70;;
25279;SDS011;13225;47.804;12.116;2023-03-16T03:48:08;25.35;;;11.82;;
25279;SDS011;13225;47.804;12.116;2023-03-16T03:50:34;23.38;;;11.52;;
25279;SDS011;13225;47.804;12.116;2023-03-16T03:52:59;21.65;;;10.93;;
25279;SDS011;13225;47.804;12.116;2023-03-16T03:55:25;23.42;;;11.50;;
25279;SDS011;13225;47.804;12.116;2023-03-16T03:57:50;25.55;;;12.25;;
25279;SDS011;13225;47.804;12.116;2023-03-16T04:00:16;23.25;;;12.02;;
25279;SDS011;13225;47.804;12.116;2023-03-16T04:02:45;22.73;;;11.32;;
25279;SDS011;13225;47.804;12.116;2023-03-16T04:05:10;21.80;;;11.63;;
25279;SDS011;13225;47.804;12.116;2023-03-16T04:07:36;23.20;;;11.75;;
25279;SDS011;13225;47.804;12.116;2023-03-16T04:10:02;26.10;;;12.25;;
25279;SDS011;13225;47.804;12.116;2023-03-16T04:12:29;25.60;;;11.63;;
25279;SDS011;13225;47.804;12.116;2023-03-16T04:14:54;22.50;;;11.02;;
25279;SDS011;13225;47.804;12.116;2023-03-16T04:17:20;21.58;;;10.38;;
25279;SDS011;13225;47.804;12.116;2023-03-16T04:19:46;19.55;;;10.13;;
25279;SDS011;13225;47.804;12.116;2023-03-16T04:22:12;29.38;;;11.38;;
25279;SDS011;13225;47.804;12.116;2023-03-16T04:24:37;75.50;;;13.38;;
25279;SDS011;13225;47.804;12.116;2023-03-16T04:27:04;44.22;;;13.85;;
25279;SDS011;13225;47.804;12.116;2023-03-16T04:29:29;28.92;;;12.60;;
25279;SDS011;13225;47.804;12.116;2023-03-16T04:31:56;26.77;;;12.60;;
25279;SDS011;13225;47.804;12.116;2023-03-16T04:34:21;23.42;;;12.32;;
25279;SDS011;13225;47.804;12.116;2023-03-16T04:36:49;21.30;;;11.00;;
25279;SDS011;13225;47.804;12.116;2023-03-16T04:39:16;25.40;;;12.52;;
25279;SDS011;13225;47.804;12.116;2023-03-16T04:41:42;26.98;;;13.45;;
25279;SDS011;13225;47.804;12.116;2023-03-16T04:44:08;30.65;;;12.57;;
25279;SDS011;13225;47.804;12.116;2023-03-16T04:46:33;27.13;;;12.60;;
25279;SDS011;13225;47.804;12.116;2023-03-16T04:48:59;28.15;;;12.90;;
25279;SDS011;13225;47.804;12.116;2023-03-16T04:51:25;29.25;;;14.07;;
25279;SDS011;13225;47.804;12.116;2023-03-16T04:53:51;29.00;;;13.45;;
25279;SDS011;13225;47.804;12.116;2023-03-16T04:56:17;30.65;;;13.60;;
25279;SDS011;13225;47.804;12.116;2023-03-16T04:58:44;24.65;;;12.30;;
25279;SDS011;13225;47.804;12.116;2023-03-16T05:01:13;26.05;;;12.68;;
25279;SDS011;13225;47.804;12.116;2023-03-16T05:03:39;24.67;;;11.65;;
25279;SDS011;13225;47.804;12.116;2023-03-16T05:06:05;22.38;;;12.32;;
25279;SDS011;13225;47.804;12.116;2023-03-16T05:08:31;22.13;;;12.40;;
25279;SDS011;13225;47.804;12.116;2023-03-16T05:10:57;28.83;;;12.82;;
25279;SDS011;13225;47.804;12.116;2023-03-16T05:13:23;25.10;;;13.15;;
25279;SDS011;13225;47.804;12.116;2023-03-16T05:15:49;42.95;;;15.05;;
25279;SDS011;13225;47.804;12.116;2023-03-16T05:18:17;55.78;;;17.17;;
25279;SDS011;13225;47.804;12.116;2023-03-16T05:20:43;69.95;;;17.55;;
25279;SDS011;13225;47.804;12.116;2023-03-16T05:23:09;105.03;;;20.08;;
25279;SDS011;13225;47.804;12.116;2023-03-16T05:25:35;104.50;;;19.83;;
25279;SDS011;13225;47.804;12.116;2023-03-16T05:28:01;264.63;;;30.95;;
25279;SDS011;13225;47.804;12.116;2023-03-16T05:30:27;83.88;;;19.15;;
25279;SDS011;13225;47.804;12.116;2023-03-16T05:32:53;35.05;;;14.63;;
25279;SDS011;13225;47.804;12.116;2023-03-16T05:35:21;57.50;;;16.80;;
25279;SDS011;13225;47.804;12.116;2023-03-16T05:37:47;44.45;;;14.82;;
25279;SDS011;13225;47.804;12.116;2023-03-16T05:40:13;46.63;;;16.92;;
25279;SDS011;13225;47.804;12.116;2023-03-16T05:42:43;46.53;;;15.10;;
25279;SDS011;13225;47.804;12.116;2023-03-16T05:45:10;75.35;;;18.73;;
25279;SDS011;13225;47.804;12.116;2023-03-16T05:47:37;84.07;;;17.17;;
25279;SDS011;13225;47.804;12.116;2023-03-16T05:50:03;73.10;;;16.63;;
25279;SDS011;13225;47.804;12.116;2023-03-16T05:52:29;45.25;;;15.23;;
25279;SDS011;13225;47.804;12.116;2023-03-16T05:54:57;82.07;;;19.55;;
25279;SDS011;13225;47.804;12.116;2023-03-16T05:57:22;56.17;;;16.88;;
25279;SDS011;13225;47.804;12.116;2023-03-16T05:59:48;78.55;;;19.05;;
25279;SDS011;13225;47.804;12.116;2023-03-16T06:02:14;83.80;;;15.68;;
25279;SDS011;13225;47.804;12.116;2023-03-16T06:04:40;48.67;;;14.55;;
25279;SDS011;13225;47.804;12.116;2023-03-16T06:07:05;40.25;;;12.80;;
25279;SDS011;13225;47.804;12.116;2023-03-16T06:09:31;44.80;;;13.13;;
25279;SDS011;13225;47.804;12.116;2023-03-16T06:11:56;45.05;;;13.75;;
25279;SDS011;13225;47.804;12.116;2023-03-16T06:14:22;28.98;;;12.50;;
25279;SDS011;13225;47.804;12.116;2023-03-16T06:16:49;31.48;;;11.48;;
25279;SDS011;13225;47.804;12.116;2023-03-16T06:19:15;37.35;;;13.00;;
25279;SDS011;13225;47.804;12.116;2023-03-16T06:21:40;42.35;;;13.60;;
25279;SDS011;13225;47.804;12.116;2023-03-16T06:24:06;47.50;;;12.65;;
25279;SDS011;13225;47.804;12.116;2023-03-16T06:26:33;45.15;;;12.48;;
25279;SDS011;13225;47.804;12.116;2023-03-16T06:28:59;49.72;;;12.10;;
25279;SDS011;13225;47.804;12.116;2023-03-16T06:31:25;40.25;;;12.80;;
25279;SDS011;13225;47.804;12.116;2023-03-16T06:33:51;49.13;;;13.50;;
25279;SDS011;13225;47.804;12.116;2023-03-16T06:36:16;34.38;;;12.93;;
25279;SDS011;13225;47.804;12.116;2023-03-16T06:38:42;22.95;;;11.82;;
25279;SDS011;13225;47.804;12.116;2023-03-16T06:41:07;33.03;;;13.95;;
25279;SDS011;13225;47.804;12.116;2023-03-16T06:43:33;30.38;;;12.68;;
25279;SDS011;13225;47.804;12.116;2023-03-16T06:45:59;39.75;;;12.45;;
25279;SDS011;13225;47.804;12.116;2023-03-16T06:48:25;23.35;;;11.02;;
25279;SDS011;13225;47.804;12.116;2023-03-16T06:50:51;21.35;;;10.27;;
25279;SDS011;13225;47.804;12.116;2023-03-16T06:53:17;26.33;;;11.13;;
25279;SDS011;13225;47.804;12.116;2023-03-16T06:55:42;31.05;;;11.93;;
25279;SDS011;13225;47.804;12.116;2023-03-16T06:58:08;38.25;;;13.10;;
25279;SDS011;13225;47.804;12.116;2023-03-16T07:00:33;29.48;;;12.43;;
25279;SDS011;13225;47.804;12.116;2023-03-16T07:02:59;21.15;;;10.98;;
25279;SDS011;13225;47.804;12.116;2023-03-16T07:05:26;23.92;;;12.02;;
25279;SDS011;13225;47.804;12.116;2023-03-16T07:07:52;19.17;;;10.05;;
25279;SDS011;13225;47.804;12.116;2023-03-16T07:10:18;19.40;;;10.15;;
25279;SDS011;13225;47.804;12.116;2023-03-16T07:12:44;20.80;;;11.13;;
25279;SDS011;13225;47.804;12.116;2023-03-16T07:15:10;20.23;;;10.00;;
25279;SDS011;13225;47.804;12.116;2023-03-16T07:17:36;24.00;;;11.40;;
25279;SDS011;13225;47.804;12.116;2023-03-16T07:20:03;21.80;;;11.05;;
25279;SDS011;13225;47.804;12.116;2023-03-16T07:22:30;22.83;;;12.00;;
25279;SDS011;13225;47.804;12.116;2023-03-16T07:24:56;22.92;;;11.35;;
25279;SDS011;13225;47.804;12.116;2023-03-16T07:27:23;22.42;;;10.98;;
25279;SDS011;13225;47.804;12.116;2023-03-16T07:29:49;22.63;;;11.18;;
25279;SDS011;13225;47.804;12.116;2023-03-16T07:32:16;25.98;;;12.38;;
25279;SDS011;13225;47.804;12.116;2023-03-16T07:34:42;27.30;;;12.35;;
25279;SDS011;13225;47.804;12.116;2023-03-16T07:37:07;25.55;;;12.07;;
25279;SDS011;13225;47.804;12.116;2023-03-16T07:39:33;31.70;;;14.85;;
25279;SDS011;13225;47.804;12.116;2023-03-16T07:42:00;26.80;;;14.48;;
25279;SDS011;13225;47.804;12.116;2023-03-16T07:44:26;24.70;;;12.20;;
25279;SDS011;13225;47.804;12.116;2023-03-16T07:46:52;18.27;;;10.35;;
25279;SDS011;13225;47.804;12.116;2023-03-16T07:49:17;19.02;;;10.13;;
25279;SDS011;13225;47.804;12.116;2023-03-16T07:51:43;22.92;;;11.13;;
25279;SDS011;13225;47.804;12.116;2023-03-16T07:54:09;18.95;;;9.48;;
25279;SDS011;13225;47.804;12.116;2023-03-16T07:56:35;17.05;;;8.82;;
25279;SDS011;13225;47.804;12.116;2023-03-16T07:59:01;18.05;;;10.35;;
25279;SDS011;13225;47.804;12.116;2023-03-16T08:01:27;16.77;;;8.60;;
25279;SDS011;13225;47.804;12.116;2023-03-16T08:03:53;18.10;;;9.60;;
25279;SDS011;13225;47.804;12.116;2023-03-16T08:06:18;17.17;;;9.18;;
25279;SDS011;13225;47.804;12.116;2023-03-16T08:08:45;15.93;;;8.88;;
25279;SDS011;13225;47.804;12.116;2023-03-16T08:11:11;12.98;;;7.30;;
25279;SDS011;13225;47.804;12.116;2023-03-16T08:13:37;14.93;;;8.68;;
25279;SDS011;13225;47.804;12.116;2023-03-16T08:16:03;9.38;;;5.55;;
25279;SDS011;13225;47.804;12.116;2023-03-16T08:18:29;9.65;;;5.85;;
25279;SDS011;13225;47.804;12.116;2023-03-16T08:20:55;11.20;;;7.60;;
25279;SDS011;13225;47.804;12.116;2023-03-16T08:23:22;11.02;;;6.78;;
25279;SDS011;13225;47.804;12.116;2023-03-16T08:25:55;9.10;;;5.88;;
25279;SDS011;13225;47.804;12.116;2023-03-16T08:28:22;8.45;;;5.07;;
25279;SDS011;13225;47.804;12.116;2023-03-16T08:30:50;9.35;;;5.68;;
25279;SDS011;13225;47.804;12.116;2023-03-16T08:33:17;8.10;;;5.72;;
25279;SDS011;13225;47.804;12.116;2023-03-16T08:35:44;8.15;;;4.90;;
25279;SDS011;13225;47.804;12.116;2023-03-16T08:38:11;7.93;;;5.10;;
25279;SDS011;13225;47.804;12.116;2023-03-16T08:40:38;7.55;;;5.75;;
25279;SDS011;13225;47.804;12.116;2023-03-16T08:43:06;8.55;;;5.63;;
25279;SDS011;13225;47.804;12.116;2023-03-16T08:45:32;8.13;;;5.55;;
25279;SDS011;13225;47.804;12.116;2023-03-16T08:47:58;8.55;;;5.88;;
25279;SDS011;13225;47.804;12.116;2023-03-16T08:50:24;7.82;;;5.47;;
25279;SDS011;13225;47.804;12.116;2023-03-16T08:52:51;8.98;;;5.85;;
25279;SDS011;13225;47.804;12.116;2023-03-16T08:55:17;9.52;;;6.03;;
25279;SDS011;13225;47.804;12.116;2023-03-16T08:57:43;9.10;;;5.80;;
25279;SDS011;13225;47.804;12.116;2023-03-16T09:00:10;11.88;;;5.88;;
25279;SDS011;13225;47.804;12.116;2023-03-16T09:02:38;13.75;;;8.32;;
25279;SDS011;13225;47.804;12.116;2023-03-16T09:05:06;9.95;;;5.60;;
25279;SDS011;13225;47.804;12.116;2023-03-16T09:07:36;9.52;;;6.22;;
25279;SDS011;13225;47.804;12.116;2023-03-16T09:10:03;10.02;;;6.63;;
25279;SDS011;13225;47.804;12.116;2023-03-16T09:12:34;11.82;;;6.35;;
25279;SDS011;13225;47.804;12.116;2023-03-16T09:15:01;9.05;;;6.10;;
25279;SDS011;13225;47.804;12.116;2023-03-16T09:17:26;26.90;;;10.50;;
25279;SDS011;13225;47.804;12.116;2023-03-16T09:19:52;10.60;;;6.30;;
25279;SDS011;13225;47.804;12.116;2023-03-16T09:22:19;9.90;;;5.88;;
25279;SDS011;13225;47.804;12.116;2023-03-16T09:24:45;12.10;;;6.63;;
25279;SDS011;13225;47.804;12.116;2023-03-16T09:27:10;9.43;;;5.38;;
25279;SDS011;13225;47.804;12.116;2023-03-16T09:29:36;12.98;;;6.75;;
25279;SDS011;13225;47.804;12.116;2023-03-16T09:32:01;10.50;;;6.68;;
25279;SDS011;13225;47.804;12.116;2023-03-16T09:34:28;8.50;;;6.05;;
25279;SDS011;13225;47.804;12.116;2023-03-16T09:36:53;10.13;;;5.85;;
25279;SDS011;13225;47.804;12.116;2023-03-16T09:39:19;10.25;;;6.00;;
25279;SDS011;13225;47.804;12.116;2023-03-16T09:41:52;8.82;;;5.35;;
25279;SDS011;13225;47.804;12.116;2023-03-16T09:44:29;13.95;;;6.13;;
25279;SDS011;13225;47.804;12.116;2023-03-16T09:46:57;10.30;;;5.50;;
25279;SDS011;13225;47.804;12.116;2023-03-16T09:49:26;7.72;;;5.00;;
25279;SDS011;13225;47.804;12.116;2023-03-16T09:52:11;7.60;;;5.15;;
25279;SDS011;13225;47.804;12.116;2023-03-16T09:54:48;22.00;;;7.40;;
25279;SDS011;13225;47.804;12.116;2023-03-16T09:57:36;7.82;;;5.45;;
25279;SDS011;13225;47.804;12.116;2023-03-16T10:00:22;11.13;;;5.32;;
25279;SDS011;13225;47.804;12.116;2023-03-16T10:05:29;7.07;;;4.93;;
25279;SDS011;13225;47.804;12.116;2023-03-16T10:19:01;5.72;;;3.45;;
25279;SDS011;13225;47.804;12.116;2023-03-16T10:21:43;20.98;;;4.88;;
25279;SDS011;13225;47.804;12.116;2023-03-16T10:24:44;5.40;;;3.90;;
25279;SDS011;13225;47.804;12.116;2023-03-16T10:27:01;9.52;;;5.47;;
25279;SDS011;13225;47.804;12.116;2023-03-16T10:29:31;12.20;;;5.25;;
25279;SDS011;13225;47.804;12.116;2023-03-16T10:32:01;5.63;;;3.33;;
25279;SDS011;13225;47.804;12.116;2023-03-16T10:34:41;3.88;;;2.85;;
25279;SDS011;13225;47.804;12.116;2023-03-16T10:37:20;8.13;;;3.75;;
25279;SDS011;13225;47.804;12.116;2023-03-16T10:39:49;5.40;;;3.00;;
25279;SDS011;13225;47.804;12.116;2023-03-16T10:42:16;3.85;;;2.67;;
25279;SDS011;13225;47.804;12.116;2023-03-16T10:44:44;5.35;;;3.28;;
25279;SDS011;13225;47.804;12.116;2023-03-16T10:47:23;9.32;;;3.95;;
25279;SDS011;13225;47.804;12.116;2023-03-16T10:49:53;5.85;;;3.90;;
25279;SDS011;13225;47.804;12.116;2023-03-16T10:55:08;5.55;;;3.33;;
25279;SDS011;13225;47.804;12.116;2023-03-16T10:57:51;6.78;;;4.10;;
25279;SDS011;13225;47.804;12.116;2023-03-16T11:00:20;6.85;;;3.00;;
25279;SDS011;13225;47.804;12.116;2023-03-16T11:02:51;3.73;;;3.00;;
25279;SDS011;13225;47.804;12.116;2023-03-16T11:07:48;6.10;;;3.65;;
25279;SDS011;13225;47.804;12.116;2023-03-16T11:10:23;5.82;;;4.00;;
25279;SDS011;13225;47.804;12.116;2023-03-16T11:12:49;6.00;;;3.97;;
25279;SDS011;13225;47.804;12.116;2023-03-16T11:15:15;7.70;;;5.22;;
25279;SDS011;13225;47.804;12.116;2023-03-16T11:17:43;4.78;;;3.05;;
25279;SDS011;13225;47.804;12.116;2023-03-16T11:20:13;6.68;;;4.40;;
25279;SDS011;13225;47.804;12.116;2023-03-16T11:22:47;6.55;;;3.85;;
25279;SDS011;13225;47.804;12.116;2023-03-16T11:25:16;9.05;;;3.65;;
25279;SDS011;13225;47.804;12.116;2023-03-16T11:30:41;5.90;;;4.05;;
25279;SDS011;13225;47.804;12.116;2023-03-16T11:33:12;9.63;;;4.78;;
25279;SDS011;13225;47.804;12.116;2023-03-16T11:44:05;4.30;;;2.83;;
25279;SDS011;13225;47.804;12.116;2023-03-16T11:58:36;3.25;;;2.75;;
25279;SDS011;13225;47.804;12.116;2023-03-16T12:01:20;6.25;;;3.53;;
25279;SDS011;13225;47.804;12.116;2023-03-16T12:12:36;4.95;;;4.05;;
25279;SDS011;13225;47.804;12.116;2023-03-16T12:17:41;3.97;;;3.33;;
25279;SDS011;13225;47.804;12.116;2023-03-16T12:22:57;4.18;;;3.78;;
25279;SDS011;13225;47.804;12.116;2023-03-16T12:25:29;14.85;;;4.10;;
25279;SDS011;13225;47.804;12.116;2023-03-16T12:27:59;4.25;;;3.47;;
25279;SDS011;13225;47.804;12.116;2023-03-16T12:36:34;6.25;;;3.40;;
25279;SDS011;13225;47.804;12.116;2023-03-16T12:40:08;5.10;;;3.33;;
25279;SDS011;13225;47.804;12.116;2023-03-16T12:45:23;9.23;;;3.70;;
25279;SDS011;13225;47.804;12.116;2023-03-16T12:48:03;4.32;;;3.45;;
25279;SDS011;13225;47.804;12.116;2023-03-16T12:50:51;4.60;;;2.85;;
25279;SDS011;13225;47.804;12.116;2023-03-16T12:53:25;4.30;;;3.55;;
25279;SDS011;13225;47.804;12.116;2023-03-16T12:56:10;3.78;;;2.90;;
25279;SDS011;13225;47.804;12.116;2023-03-16T12:58:40;6.65;;;3.90;;
25279;SDS011;13225;47.804;12.116;2023-03-16T13:01:15;3.15;;;2.70;;
25279;SDS011;13225;47.804;12.116;2023-03-16T13:03:42;3.97;;;3.40;;
25279;SDS011;13225;47.804;12.116;2023-03-16T13:06:17;5.75;;;3.05;;
25279;SDS011;13225;47.804;12.116;2023-03-16T13:08:53;3.65;;;2.83;;
25279;SDS011;13225;47.804;12.116;2023-03-16T13:11:23;4.32;;;3.47;;
25279;SDS011;13225;47.804;12.116;2023-03-16T13:16:30;5.10;;;3.17;;
25279;SDS011;13225;47.804;12.116;2023-03-16T13:18:57;3.25;;;2.80;;
25279;SDS011;13225;47.804;12.116;2023-03-16T13:21:36;3.63;;;3.20;;
25279;SDS011;13225;47.804;12.116;2023-03-16T13:26:46;2.33;;;2.08;;
25279;SDS011;13225;47.804;12.116;2023-03-16T13:29:21;3.78;;;2.80;;
25279;SDS011;13225;47.804;12.116;2023-03-16T13:31:51;5.18;;;2.05;;
25279;SDS011;13225;47.804;12.116;2023-03-16T13:34:45;2.97;;;2.67;;
25279;SDS011;13225;47.804;12.116;2023-03-16T13:37:13;2.97;;;2.38;;
25279;SDS011;13225;47.804;12.116;2023-03-16T13:39:41;3.10;;;2.80;;
25279;SDS011;13225;47.804;12.116;2023-03-16T13:42:29;4.05;;;2.25;;
25279;SDS011;13225;47.804;12.116;2023-03-16T13:44:58;6.85;;;3.05;;
25279;SDS011;13225;47.804;12.116;2023-03-16T13:47:40;2.95;;;2.42;;
25279;SDS011;13225;47.804;12.116;2023-03-16T13:50:09;2.10;;;1.90;;
25279;SDS011;13225;47.804;12.116;2023-03-16T13:52:36;11.73;;;7.18;;
25279;SDS011;13225;47.804;12.116;2023-03-16T13:55:16;5.00;;;3.65;;
25279;SDS011;13225;47.804;12.116;2023-03-16T13:57:46;5.90;;;3.67;;
25279;SDS011;13225;47.804;12.116;2023-03-16T14:00:17;3.00;;;2.70;;
25279;SDS011;13225;47.804;12.116;2023-03-16T14:02:52;5.03;;;2.90;;
25279;SDS011;13225;47.804;12.116;2023-03-16T14:05:27;6.88;;;4.03;;
25279;SDS011;13225;47.804;12.116;2023-03-16T14:07:57;9.70;;;6.13;;
25279;SDS011;13225;47.804;12.116;2023-03-16T14:10:28;3.53;;;2.83;;
25279;SDS011;13225;47.804;12.116;2023-03-16T14:13:05;5.53;;;3.88;;
25279;SDS011;13225;47.804;12.116;2023-03-16T14:15:34;5.35;;;3.03;;
25279;SDS011;13225;47.804;12.116;2023-03-16T14:18:12;4.75;;;3.22;;
25279;SDS011;13225;47.804;12.116;2023-03-16T14:20:42;3.85;;;2.70;;
25279;SDS011;13225;47.804;12.116;2023-03-16T14:23:21;3.55;;;2.75;;
25279;SDS011;13225;47.804;12.116;2023-03-16T14:25:49;3.03;;;2.33;;
25279;SDS011;13225;47.804;12.116;2023-03-16T14:28:18;6.03;;;3.63;;
25279;SDS011;13225;47.804;12.116;2023-03-16T14:31:00;3.70;;;2.80;;
25279;SDS011;13225;47.804;12.116;2023-03-16T14:33:37;4.47;;;2.80;;
25279;SDS011;13225;47.804;12.116;2023-03-16T14:36:16;2.97;;;2.25;;
25279;SDS011;13225;47.804;12.116;2023-03-16T14:38:44;2.60;;;1.95;;
25279;SDS011;13225;47.804;12.116;2023-03-16T14:41:23;3.75;;;2.20;;
25279;SDS011;13225;47.804;12.116;2023-03-16T14:43:56;2.08;;;1.88;;
25279;SDS011;13225;47.804;12.116;2023-03-16T14:49:17;3.22;;;2.40;;
25279;SDS011;13225;47.804;12.116;2023-03-16T14:51:50;2.55;;;2.30;;
25279;SDS011;13225;47.804;12.116;2023-03-16T14:54:18;3.38;;;2.38;;
25279;SDS011;13225;47.804;12.116;2023-03-16T14:56:53;1.45;;;1.25;;
25279;SDS011;13225;47.804;12.116;2023-03-16T14:59:24;3.35;;;2.08;;
25279;SDS011;13225;47.804;12.116;2023-03-16T15:01:50;1.95;;;1.60;;
25279;SDS011;13225;47.804;12.116;2023-03-16T15:04:18;2.15;;;1.95;;
25279;SDS011;13225;47.804;12.116;2023-03-16T15:06:49;4.25;;;2.05;;
25279;SDS011;13225;47.804;12.116;2023-03-16T15:09:24;3.25;;;1.92;;
25279;SDS011;13225;47.804;12.116;2023-03-16T15:11:55;2.70;;;2.15;;
25279;SDS011;13225;47.804;12.116;2023-03-16T15:14:22;2.95;;;1.92;;
25279;SDS011;13225;47.804;12.116;2023-03-16T15:17:06;2.78;;;1.83;;
25279;SDS011;13225;47.804;12.116;2023-03-16T15:19:33;1.77;;;1.55;;
25279;SDS011;13225;47.804;12.116;2023-03-16T15:21:59;2.53;;;1.85;;
25279;SDS011;13225;47.804;12.116;2023-03-16T15:24:26;5.78;;;2.15;;
25279;SDS011;13225;47.804;12.116;2023-03-16T15:26:53;2.35;;;1.67;;
25279;SDS011;13225;47.804;12.116;2023-03-16T15:29:19;2.58;;;1.77;;
25279;SDS011;13225;47.804;12.116;2023-03-16T15:31:45;2.30;;;1.60;;
25279;SDS011;13225;47.804;12.116;2023-03-16T15:34:11;3.03;;;2.20;;
25279;SDS011;13225;47.804;12.116;2023-03-16T15:36:37;3.05;;;1.45;;
25279;SDS011;13225;47.804;12.116;2023-03-16T15:39:02;3.10;;;1.65;;
25279;SDS011;13225;47.804;12.116;2023-03-16T15:41:28;1.50;;;1.40;;
25279;SDS011;13225;47.804;12.116;2023-03-16T15:43:54;2.35;;;1.70;;
25279;SDS011;13225;47.804;12.116;2023-03-16T15:46:24;5.57;;;2.10;;
25279;SDS011;13225;47.804;12.116;2023-03-16T15:48:51;4.30;;;1.70;;
25279;SDS011;13225;47.804;12.116;2023-03-16T15:51:26;2.65;;;1.48;;
25279;SDS011;13225;47.804;12.116;2023-03-16T15:53:55;1.33;;;1.08;;